sensor_id;sensor_type;location;lat;lon;timestamp;pressure;altitude;pressure_sealevel;temperature;humidity
77823;BME280;67013;49.730;17.292;2023-11-21T00:01:38;97723.16;;;8.70;77.14
77823;BME280;67013;49.730;17.292;2023-11-21T00:04:07;97721.98;;;8.68;76.92
77823;BME280;67013;49.730;17.292;2023-11-21T00:06:37;97721.52;;;8.64;76.98
77823;BME280;67013;49.730;17.292;2023-11-21T00:09:07;97712.67;;;8.64;77.02
77823;BME280;67013;49.730;17.292;2023-11-21T00:11:37;97713.44;;;8.66;77.00
77823;BME280;67013;49.730;17.292;2023-11-21T00:14:08;97708.48;;;8.67;76.81
77823;BME280;67013;49.730;17.292;2023-11-21T00:16:37;97709.55;;;8.69;76.90
77823;BME280;67013;49.730;17.292;2023-11-21T00:19:08;97711.59;;;8.72;76.99
77823;BME280;67013;49.730;17.292;2023-11-21T00:21:37;97712.09;;;8.74;76.81
77823;BME280;67013;49.730;17.292;2023-11-21T00:24:08;97713.36;;;8.76;76.75
77823;BME280;67013;49.730;17.292;2023-11-21T00:26:38;97716.38;;;8.77;76.73
77823;BME280;67013;49.730;17.292;2023-11-21T00:29:07;97712.92;;;8.79;76.57
77823;BME280;67013;49.730;17.292;2023-11-21T00:31:37;97713.92;;;8.80;76.47
77823;BME280;67013;49.730;17.292;2023-11-21T00:34:06;97717.21;;;8.80;76.28
77823;BME280;67013;49.730;17.292;2023-11-21T00:36:36;97723.38;;;8.78;76.18
77823;BME280;67013;49.730;17.292;2023-11-21T00:39:06;97727.38;;;8.76;76.06
77823;BME280;67013;49.730;17.292;2023-11-21T00:41:36;97726.16;;;8.74;76.21
77823;BME280;67013;49.730;17.292;2023-11-21T00:44:06;97727.98;;;8.73;76.13
77823;BME280;67013;49.730;17.292;2023-11-21T00:46:36;97731.94;;;8.71;76.07
77823;BME280;67013;49.730;17.292;2023-11-21T00:49:05;97735.99;;;8.68;76.20
77823;BME280;67013;49.730;17.292;2023-11-21T00:51:35;97730.45;;;8.65;76.20
77823;BME280;67013;49.730;17.292;2023-11-21T00:54:06;97737.02;;;8.64;76.38
77823;BME280;67013;49.730;17.292;2023-11-21T00:56:35;97739.27;;;8.61;76.03
77823;BME280;67013;49.730;17.292;2023-11-21T00:59:05;97738.06;;;8.59;76.07
77823;BME280;67013;49.730;17.292;2023-11-21T01:01:35;97736.40;;;8.58;76.25
77823;BME280;67013;49.730;17.292;2023-11-21T01:04:06;97737.92;;;8.59;76.30
77823;BME280;67013;49.730;17.292;2023-11-21T01:06:36;97742.57;;;8.59;76.36
77823;BME280;67013;49.730;17.292;2023-11-21T01:09:05;97745.15;;;8.59;76.33
77823;BME280;67013;49.730;17.292;2023-11-21T01:11:36;97743.83;;;8.62;76.31
77823;BME280;67013;49.730;17.292;2023-11-21T01:14:07;97742.08;;;8.65;76.09
77823;BME280;67013;49.730;17.292;2023-11-21T01:16:37;97744.14;;;8.68;76.18
77823;BME280;67013;49.730;17.292;2023-11-21T01:19:06;97741.93;;;8.70;76.00
77823;BME280;67013;49.730;17.292;2023-11-21T01:21:37;97741.09;;;8.72;75.97
77823;BME280;67013;49.730;17.292;2023-11-21T01:24:07;97737.88;;;8.73;75.99
77823;BME280;67013;49.730;17.292;2023-11-21T01:26:37;97733.23;;;8.74;75.79
77823;BME280;67013;49.730;17.292;2023-11-21T01:29:07;97733.86;;;8.77;75.69
77823;BME280;67013;49.730;17.292;2023-11-21T01:31:36;97735.50;;;8.79;75.49
77823;BME280;67013;49.730;17.292;2023-11-21T01:34:06;97738.65;;;8.78;75.35
77823;BME280;67013;49.730;17.292;2023-11-21T01:36:35;97738.64;;;8.78;75.20
77823;BME280;67013;49.730;17.292;2023-11-21T01:39:05;97742.50;;;8.78;75.21
77823;BME280;67013;49.730;17.292;2023-11-21T01:41:36;97740.23;;;8.76;75.17
77823;BME280;67013;49.730;17.292;2023-11-21T01:44:06;97739.53;;;8.74;75.29
77823;BME280;67013;49.730;17.292;2023-11-21T01:46:37;97739.91;;;8.73;75.27
77823;BME280;67013;49.730;17.292;2023-11-21T01:49:07;97739.60;;;8.73;75.18
77823;BME280;67013;49.730;17.292;2023-11-21T01:51:41;97741.45;;;8.67;75.09
77823;BME280;67013;49.730;17.292;2023-11-21T01:54:12;97740.54;;;8.60;75.36
77823;BME280;67013;49.730;17.292;2023-11-21T01:56:42;97741.01;;;8.57;75.51
77823;BME280;67013;49.730;17.292;2023-11-21T01:59:11;97738.59;;;8.57;75.64
77823;BME280;67013;49.730;17.292;2023-11-21T02:01:41;97736.04;;;8.56;75.62
77823;BME280;67013;49.730;17.292;2023-11-21T02:04:11;97740.53;;;8.56;75.68
77823;BME280;67013;49.730;17.292;2023-11-21T02:06:40;97743.11;;;8.56;75.89
77823;BME280;67013;49.730;17.292;2023-11-21T02:09:10;97743.41;;;8.55;75.94
77823;BME280;67013;49.730;17.292;2023-11-21T02:11:43;97740.75;;;8.53;76.18
77823;BME280;67013;49.730;17.292;2023-11-21T02:14:12;97741.61;;;8.53;76.23
77823;BME280;67013;49.730;17.292;2023-11-21T02:16:42;97743.98;;;8.54;76.25
77823;BME280;67013;49.730;17.292;2023-11-21T02:19:18;97746.18;;;8.55;76.17
77823;BME280;67013;49.730;17.292;2023-11-21T02:21:51;97751.58;;;8.57;76.09
77823;BME280;67013;49.730;17.292;2023-11-21T02:24:21;97750.84;;;8.57;75.94
77823;BME280;67013;49.730;17.292;2023-11-21T02:26:51;97752.61;;;8.57;76.12
77823;BME280;67013;49.730;17.292;2023-11-21T02:29:21;97752.61;;;8.57;76.16
77823;BME280;67013;49.730;17.292;2023-11-21T02:31:56;97752.52;;;8.56;76.28
77823;BME280;67013;49.730;17.292;2023-11-21T02:34:26;97754.44;;;8.53;76.24
77823;BME280;67013;49.730;17.292;2023-11-21T02:36:55;97753.25;;;8.53;76.11
77823;BME280;67013;49.730;17.292;2023-11-21T02:39:25;97757.56;;;8.53;76.41
77823;BME280;67013;49.730;17.292;2023-11-21T02:41:55;97756.51;;;8.56;76.35
77823;BME280;67013;49.730;17.292;2023-11-21T02:44:24;97755.12;;;8.58;76.17
77823;BME280;67013;49.730;17.292;2023-11-21T02:46:54;97750.83;;;8.62;75.76
77823;BME280;67013;49.730;17.292;2023-11-21T02:49:25;97748.34;;;8.65;75.81
77823;BME280;67013;49.730;17.292;2023-11-21T02:51:56;97747.64;;;8.67;75.64
77823;BME280;67013;49.730;17.292;2023-11-21T02:54:26;97744.02;;;8.67;75.38
77823;BME280;67013;49.730;17.292;2023-11-21T02:56:55;97746.98;;;8.67;75.71
77823;BME280;67013;49.730;17.292;2023-11-21T02:59:25;97745.25;;;8.67;75.60
77823;BME280;67013;49.730;17.292;2023-11-21T03:01:54;97743.97;;;8.65;75.60
77823;BME280;67013;49.730;17.292;2023-11-21T03:04:25;97746.85;;;8.66;75.68
77823;BME280;67013;49.730;17.292;2023-11-21T03:06:54;97749.09;;;8.69;75.78
77823;BME280;67013;49.730;17.292;2023-11-21T03:09:24;97751.86;;;8.71;75.53
77823;BME280;67013;49.730;17.292;2023-11-21T03:11:55;97756.80;;;8.72;75.75
77823;BME280;67013;49.730;17.292;2023-11-21T03:14:24;97752.27;;;8.73;75.57
77823;BME280;67013;49.730;17.292;2023-11-21T03:16:54;97747.95;;;8.73;75.40
77823;BME280;67013;49.730;17.292;2023-11-21T03:19:23;97746.00;;;8.71;75.70
77823;BME280;67013;49.730;17.292;2023-11-21T03:21:53;97744.73;;;8.67;75.99
77823;BME280;67013;49.730;17.292;2023-11-21T03:24:22;97740.63;;;8.64;76.22
77823;BME280;67013;49.730;17.292;2023-11-21T03:26:52;97741.59;;;8.62;76.19
77823;BME280;67013;49.730;17.292;2023-11-21T03:29:21;97741.98;;;8.60;76.17
77823;BME280;67013;49.730;17.292;2023-11-21T03:31:51;97742.61;;;8.56;76.23
77823;BME280;67013;49.730;17.292;2023-11-21T03:34:25;97742.63;;;8.54;76.22
77823;BME280;67013;49.730;17.292;2023-11-21T03:36:55;97745.10;;;8.53;76.54
77823;BME280;67013;49.730;17.292;2023-11-21T03:39:24;97743.79;;;8.54;76.77
77823;BME280;67013;49.730;17.292;2023-11-21T03:41:54;97746.09;;;8.56;76.77
77823;BME280;67013;49.730;17.292;2023-11-21T03:44:24;97748.12;;;8.57;76.84
77823;BME280;67013;49.730;17.292;2023-11-21T03:46:53;97749.90;;;8.58;77.02
77823;BME280;67013;49.730;17.292;2023-11-21T03:49:23;97752.45;;;8.59;77.00
77823;BME280;67013;49.730;17.292;2023-11-21T03:51:52;97749.13;;;8.61;76.94
77823;BME280;67013;49.730;17.292;2023-11-21T03:54:22;97752.92;;;8.64;77.19
77823;BME280;67013;49.730;17.292;2023-11-21T03:56:52;97753.30;;;8.64;77.04
77823;BME280;67013;49.730;17.292;2023-11-21T03:59:21;97754.38;;;8.63;77.24
77823;BME280;67013;49.730;17.292;2023-11-21T04:01:53;97744.70;;;8.65;77.20
77823;BME280;67013;49.730;17.292;2023-11-21T04:04:24;97747.45;;;8.65;76.93
77823;BME280;67013;49.730;17.292;2023-11-21T04:06:53;97743.23;;;8.66;77.06
77823;BME280;67013;49.730;17.292;2023-11-21T04:09:23;97743.50;;;8.67;76.90
77823;BME280;67013;49.730;17.292;2023-11-21T04:11:53;97743.95;;;8.68;77.03
77823;BME280;67013;49.730;17.292;2023-11-21T04:14:24;97745.87;;;8.68;77.12
77823;BME280;67013;49.730;17.292;2023-11-21T04:16:53;97753.88;;;8.67;76.93
77823;BME280;67013;49.730;17.292;2023-11-21T04:19:24;97752.54;;;8.67;76.92
77823;BME280;67013;49.730;17.292;2023-11-21T04:21:53;97749.70;;;8.63;77.03
77823;BME280;67013;49.730;17.292;2023-11-21T04:24:23;97750.98;;;8.60;77.03
77823;BME280;67013;49.730;17.292;2023-11-21T04:26:52;97751.04;;;8.57;77.19
77823;BME280;67013;49.730;17.292;2023-11-21T04:29:22;97754.64;;;8.55;77.05
77823;BME280;67013;49.730;17.292;2023-11-21T04:31:52;97755.83;;;8.53;77.10
77823;BME280;67013;49.730;17.292;2023-11-21T04:34:21;97759.77;;;8.51;77.29
77823;BME280;67013;49.730;17.292;2023-11-21T04:36:51;97759.77;;;8.51;77.51
77823;BME280;67013;49.730;17.292;2023-11-21T04:39:20;97755.39;;;8.52;77.52
77823;BME280;67013;49.730;17.292;2023-11-21T04:41:50;97756.65;;;8.54;77.63
77823;BME280;67013;49.730;17.292;2023-11-21T04:44:19;97757.36;;;8.56;77.48
77823;BME280;67013;49.730;17.292;2023-11-21T04:46:48;97757.56;;;8.58;77.39
77823;BME280;67013;49.730;17.292;2023-11-21T04:49:18;97762.77;;;8.58;77.37
77823;BME280;67013;49.730;17.292;2023-11-21T04:51:47;97768.09;;;8.58;77.44
77823;BME280;67013;49.730;17.292;2023-11-21T04:54:17;97765.14;;;8.58;77.43
77823;BME280;67013;49.730;17.292;2023-11-21T04:56:46;97766.41;;;8.58;77.61
77823;BME280;67013;49.730;17.292;2023-11-21T04:59:16;97767.89;;;8.59;77.62
77823;BME280;67013;49.730;17.292;2023-11-21T05:01:46;97770.31;;;8.61;77.69
77823;BME280;67013;49.730;17.292;2023-11-21T05:04:15;97770.73;;;8.62;77.69
77823;BME280;67013;49.730;17.292;2023-11-21T05:06:45;97772.18;;;8.64;77.61
77823;BME280;67013;49.730;17.292;2023-11-21T05:09:14;97772.09;;;8.65;77.45
77823;BME280;67013;49.730;17.292;2023-11-21T05:11:44;97768.70;;;8.64;77.60
77823;BME280;67013;49.730;17.292;2023-11-21T05:14:13;97766.44;;;8.62;77.69
77823;BME280;67013;49.730;17.292;2023-11-21T05:16:43;97767.25;;;8.62;77.79
77823;BME280;67013;49.730;17.292;2023-11-21T05:19:12;97767.14;;;8.64;77.76
77823;BME280;67013;49.730;17.292;2023-11-21T05:21:42;97767.03;;;8.65;77.82
77823;BME280;67013;49.730;17.292;2023-11-21T05:24:12;97764.77;;;8.68;77.74
77823;BME280;67013;49.730;17.292;2023-11-21T05:26:41;97766.10;;;8.68;77.81
77823;BME280;67013;49.730;17.292;2023-11-21T05:29:11;97766.30;;;8.70;77.87
77823;BME280;67013;49.730;17.292;2023-11-21T05:31:40;97768.73;;;8.70;77.82
77823;BME280;67013;49.730;17.292;2023-11-21T05:34:09;97769.47;;;8.70;77.71
77823;BME280;67013;49.730;17.292;2023-11-21T05:36:39;97773.48;;;8.69;77.58
77823;BME280;67013;49.730;17.292;2023-11-21T05:39:09;97770.60;;;8.69;77.51
77823;BME280;67013;49.730;17.292;2023-11-21T05:41:39;97772.02;;;8.68;77.76
77823;BME280;67013;49.730;17.292;2023-11-21T05:44:08;97777.91;;;8.68;77.78
77823;BME280;67013;49.730;17.292;2023-11-21T05:46:38;97773.02;;;8.69;77.81
77823;BME280;67013;49.730;17.292;2023-11-21T05:49:08;97773.43;;;8.70;77.87
77823;BME280;67013;49.730;17.292;2023-11-21T05:51:38;97775.39;;;8.72;77.68
77823;BME280;67013;49.730;17.292;2023-11-21T05:54:08;97778.42;;;8.73;77.63
77823;BME280;67013;49.730;17.292;2023-11-21T05:56:37;97781.89;;;8.75;77.54
77823;BME280;67013;49.730;17.292;2023-11-21T05:59:07;97786.22;;;8.75;77.42
77823;BME280;67013;49.730;17.292;2023-11-21T06:01:36;97786.19;;;8.75;77.30
77823;BME280;67013;49.730;17.292;2023-11-21T06:04:07;97788.80;;;8.73;77.27
77823;BME280;67013;49.730;17.292;2023-11-21T06:06:37;97791.39;;;8.71;77.27
77823;BME280;67013;49.730;17.292;2023-11-21T06:09:07;97794.23;;;8.70;77.65
77823;BME280;67013;49.730;17.292;2023-11-21T06:11:37;97796.73;;;8.69;77.53
77823;BME280;67013;49.730;17.292;2023-11-21T06:14:07;97800.90;;;8.69;77.64
77823;BME280;67013;49.730;17.292;2023-11-21T06:16:37;97801.88;;;8.70;77.70
77823;BME280;67013;49.730;17.292;2023-11-21T06:19:08;97797.34;;;8.70;77.84
77823;BME280;67013;49.730;17.292;2023-11-21T06:21:38;97800.70;;;8.72;78.12
77823;BME280;67013;49.730;17.292;2023-11-21T06:24:09;97802.52;;;8.73;77.96
77823;BME280;67013;49.730;17.292;2023-11-21T06:26:39;97805.60;;;8.73;77.97
77823;BME280;67013;49.730;17.292;2023-11-21T06:29:09;97806.88;;;8.75;77.99
77823;BME280;67013;49.730;17.292;2023-11-21T06:31:39;97806.75;;;8.76;77.81
77823;BME280;67013;49.730;17.292;2023-11-21T06:34:09;97808.36;;;8.76;77.85
77823;BME280;67013;49.730;17.292;2023-11-21T06:36:38;97815.98;;;8.74;77.85
77823;BME280;67013;49.730;17.292;2023-11-21T06:39:09;97815.90;;;8.72;77.88
77823;BME280;67013;49.730;17.292;2023-11-21T06:41:39;97815.92;;;8.72;78.20
77823;BME280;67013;49.730;17.292;2023-11-21T06:44:09;97815.17;;;8.73;78.37
77823;BME280;67013;49.730;17.292;2023-11-21T06:46:39;97818.14;;;8.75;78.24
77823;BME280;67013;49.730;17.292;2023-11-21T06:49:10;97822.48;;;8.77;78.37
77823;BME280;67013;49.730;17.292;2023-11-21T06:51:40;97821.34;;;8.78;78.16
77823;BME280;67013;49.730;17.292;2023-11-21T06:54:10;97826.88;;;8.81;78.20
77823;BME280;67013;49.730;17.292;2023-11-21T06:56:39;97825.69;;;8.83;78.18
77823;BME280;67013;49.730;17.292;2023-11-21T06:59:09;97826.29;;;8.84;78.17
77823;BME280;67013;49.730;17.292;2023-11-21T07:01:39;97823.17;;;8.87;78.20
77823;BME280;67013;49.730;17.292;2023-11-21T07:04:09;97821.84;;;8.88;77.97
77823;BME280;67013;49.730;17.292;2023-11-21T07:06:39;97824.54;;;8.91;77.99
77823;BME280;67013;49.730;17.292;2023-11-21T07:09:09;97826.31;;;8.93;77.96
77823;BME280;67013;49.730;17.292;2023-11-21T07:11:39;97824.17;;;8.94;78.00
77823;BME280;67013;49.730;17.292;2023-11-21T07:14:09;97827.60;;;8.94;77.92
77823;BME280;67013;49.730;17.292;2023-11-21T07:16:40;97831.46;;;8.96;77.98
77823;BME280;67013;49.730;17.292;2023-11-21T07:19:09;97832.89;;;8.98;77.75
77823;BME280;67013;49.730;17.292;2023-11-21T07:21:40;97828.50;;;9.01;77.68
77823;BME280;67013;49.730;17.292;2023-11-21T07:24:10;97833.17;;;9.03;77.62
77823;BME280;67013;49.730;17.292;2023-11-21T07:26:40;97835.73;;;9.04;77.67
77823;BME280;67013;49.730;17.292;2023-11-21T07:29:09;97843.11;;;9.07;77.84
77823;BME280;67013;49.730;17.292;2023-11-21T07:31:39;97838.96;;;9.09;77.87
77823;BME280;67013;49.730;17.292;2023-11-21T07:34:09;97840.67;;;9.12;77.77
77823;BME280;67013;49.730;17.292;2023-11-21T07:36:40;97841.52;;;9.14;77.85
77823;BME280;67013;49.730;17.292;2023-11-21T07:39:10;97839.04;;;9.17;77.62
77823;BME280;67013;49.730;17.292;2023-11-21T07:41:39;97835.99;;;9.21;77.64
77823;BME280;67013;49.730;17.292;2023-11-21T07:44:13;97839.60;;;9.24;77.66
77823;BME280;67013;49.730;17.292;2023-11-21T07:46:42;97843.84;;;9.27;77.53
77823;BME280;67013;49.730;17.292;2023-11-21T07:49:12;97850.50;;;9.29;77.45
77823;BME280;67013;49.730;17.292;2023-11-21T07:51:44;97853.03;;;9.30;77.28
77823;BME280;67013;49.730;17.292;2023-11-21T07:54:14;97854.19;;;9.31;77.20
77823;BME280;67013;49.730;17.292;2023-11-21T07:56:44;97854.13;;;9.31;76.76
77823;BME280;67013;49.730;17.292;2023-11-21T07:59:13;97853.28;;;9.33;76.43
77823;BME280;67013;49.730;17.292;2023-11-21T08:01:43;97854.23;;;9.35;76.23
77823;BME280;67013;49.730;17.292;2023-11-21T08:04:13;97855.23;;;9.35;76.38
77823;BME280;67013;49.730;17.292;2023-11-21T08:06:43;97856.19;;;9.36;76.25
77823;BME280;67013;49.730;17.292;2023-11-21T08:09:12;97857.80;;;9.37;76.14
77823;BME280;67013;49.730;17.292;2023-11-21T08:11:43;97858.98;;;9.40;76.07
77823;BME280;67013;49.730;17.292;2023-11-21T08:14:15;97863.19;;;9.42;76.23
77823;BME280;67013;49.730;17.292;2023-11-21T08:16:44;97859.86;;;9.44;76.05
77823;BME280;67013;49.730;17.292;2023-11-21T08:19:14;97858.35;;;9.48;76.07
77823;BME280;67013;49.730;17.292;2023-11-21T08:21:44;97863.38;;;9.50;75.79
77823;BME280;67013;49.730;17.292;2023-11-21T08:24:14;97869.53;;;9.52;75.65
77823;BME280;67013;49.730;17.292;2023-11-21T08:26:44;97873.50;;;9.52;75.52
77823;BME280;67013;49.730;17.292;2023-11-21T08:29:13;97877.84;;;9.52;75.53
77823;BME280;67013;49.730;17.292;2023-11-21T08:31:43;97881.02;;;9.51;75.75
77823;BME280;67013;49.730;17.292;2023-11-21T08:34:14;97879.91;;;9.50;75.38
77823;BME280;67013;49.730;17.292;2023-11-21T08:36:45;97881.10;;;9.50;75.04
77823;BME280;67013;49.730;17.292;2023-11-21T08:39:14;97881.88;;;9.49;75.15
77823;BME280;67013;49.730;17.292;2023-11-21T08:41:47;97880.89;;;9.51;75.03
77823;BME280;67013;49.730;17.292;2023-11-21T08:44:16;97882.15;;;9.52;74.88
77823;BME280;67013;49.730;17.292;2023-11-21T08:46:46;97885.44;;;9.52;74.86
77823;BME280;67013;49.730;17.292;2023-11-21T08:49:16;97882.17;;;9.52;74.78
77823;BME280;67013;49.730;17.292;2023-11-21T08:51:46;97884.75;;;9.52;74.96
77823;BME280;67013;49.730;17.292;2023-11-21T08:54:16;97886.57;;;9.51;74.64
77823;BME280;67013;49.730;17.292;2023-11-21T08:56:46;97886.80;;;9.50;74.66
77823;BME280;67013;49.730;17.292;2023-11-21T08:59:15;97888.08;;;9.50;74.63
77823;BME280;67013;49.730;17.292;2023-11-21T09:01:45;97888.41;;;9.48;74.67
77823;BME280;67013;49.730;17.292;2023-11-21T09:04:14;97884.10;;;9.45;74.99
77823;BME280;67013;49.730;17.292;2023-11-21T09:06:44;97885.84;;;9.43;74.94
77823;BME280;67013;49.730;17.292;2023-11-21T09:09:16;97885.02;;;9.43;75.07
77823;BME280;67013;49.730;17.292;2023-11-21T09:11:47;97887.14;;;9.44;74.99
77823;BME280;67013;49.730;17.292;2023-11-21T09:14:17;97888.79;;;9.45;75.06
77823;BME280;67013;49.730;17.292;2023-11-21T09:16:47;97886.96;;;9.48;75.31
77823;BME280;67013;49.730;17.292;2023-11-21T09:19:18;97890.15;;;9.52;74.90
77823;BME280;67013;49.730;17.292;2023-11-21T09:21:49;97889.26;;;9.55;74.73
77823;BME280;67013;49.730;17.292;2023-11-21T09:24:19;97890.09;;;9.58;74.75
77823;BME280;67013;49.730;17.292;2023-11-21T09:26:49;97890.25;;;9.60;74.79
77823;BME280;67013;49.730;17.292;2023-11-21T09:29:18;97894.89;;;9.63;74.65
77823;BME280;67013;49.730;17.292;2023-11-21T09:31:48;97892.41;;;9.64;74.49
77823;BME280;67013;49.730;17.292;2023-11-21T09:34:19;97893.25;;;9.64;74.47
77823;BME280;67013;49.730;17.292;2023-11-21T09:36:49;97894.96;;;9.64;74.48
77823;BME280;67013;49.730;17.292;2023-11-21T09:39:19;97895.05;;;9.67;74.45
77823;BME280;67013;49.730;17.292;2023-11-21T09:41:51;97895.55;;;9.68;74.71
77823;BME280;67013;49.730;17.292;2023-11-21T09:44:30;97897.47;;;9.68;74.52
77823;BME280;67013;49.730;17.292;2023-11-21T09:47:03;97899.32;;;9.66;74.70
77823;BME280;67013;49.730;17.292;2023-11-21T09:49:37;97896.42;;;9.65;74.76
77823;BME280;67013;49.730;17.292;2023-11-21T09:52:09;97897.85;;;9.65;74.84
77823;BME280;67013;49.730;17.292;2023-11-21T09:54:43;97893.96;;;9.66;75.04
77823;BME280;67013;49.730;17.292;2023-11-21T09:57:13;97899.14;;;9.69;75.01
77823;BME280;67013;49.730;17.292;2023-11-21T09:59:44;97894.23;;;9.74;75.03
77823;BME280;67013;49.730;17.292;2023-11-21T10:02:15;97894.83;;;9.77;75.04
77823;BME280;67013;49.730;17.292;2023-11-21T10:04:48;97895.20;;;9.79;74.65
77823;BME280;67013;49.730;17.292;2023-11-21T10:07:19;97890.02;;;9.81;74.57
77823;BME280;67013;49.730;17.292;2023-11-21T10:09:50;97891.23;;;9.81;74.62
77823;BME280;67013;49.730;17.292;2023-11-21T10:12:21;97893.52;;;9.80;74.88
77823;BME280;67013;49.730;17.292;2023-11-21T10:14:51;97893.35;;;9.80;74.67
77823;BME280;67013;49.730;17.292;2023-11-21T10:17:24;97892.69;;;9.80;74.59
77823;BME280;67013;49.730;17.292;2023-11-21T10:19:59;97896.98;;;9.80;74.93
77823;BME280;67013;49.730;17.292;2023-11-21T10:22:29;97896.02;;;9.82;74.72
77823;BME280;67013;49.730;17.292;2023-11-21T10:24:59;97891.84;;;9.84;74.79
77823;BME280;67013;49.730;17.292;2023-11-21T10:27:29;97893.66;;;9.85;74.54
77823;BME280;67013;49.730;17.292;2023-11-21T10:29:58;97893.95;;;9.86;74.66
77823;BME280;67013;49.730;17.292;2023-11-21T10:32:30;97896.42;;;9.88;74.82
77823;BME280;67013;49.730;17.292;2023-11-21T10:35:01;97899.23;;;9.89;74.65
77823;BME280;67013;49.730;17.292;2023-11-21T10:37:35;97900.60;;;9.90;74.78
77823;BME280;67013;49.730;17.292;2023-11-21T10:40:06;97900.16;;;9.89;74.85
77823;BME280;67013;49.730;17.292;2023-11-21T10:42:37;97899.84;;;9.89;74.74
77823;BME280;67013;49.730;17.292;2023-11-21T10:45:08;97901.52;;;9.89;74.91
77823;BME280;67013;49.730;17.292;2023-11-21T10:47:42;97900.79;;;9.90;74.98
77823;BME280;67013;49.730;17.292;2023-11-21T10:50:13;97897.33;;;9.89;74.88
77823;BME280;67013;49.730;17.292;2023-11-21T10:52:43;97897.67;;;9.92;75.14
77823;BME280;67013;49.730;17.292;2023-11-21T10:55:21;97896.11;;;9.94;75.19
77823;BME280;67013;49.730;17.292;2023-11-21T10:57:54;97897.94;;;9.98;75.67
77823;BME280;67013;49.730;17.292;2023-11-21T11:00:28;97895.01;;;9.99;75.60
77823;BME280;67013;49.730;17.292;2023-11-21T11:02:58;97900.59;;;10.01;75.86
77823;BME280;67013;49.730;17.292;2023-11-21T11:05:29;97900.11;;;10.03;75.83
77823;BME280;67013;49.730;17.292;2023-11-21T11:08:00;97903.85;;;10.06;75.79
77823;BME280;67013;49.730;17.292;2023-11-21T11:10:32;97898.71;;;10.08;75.93
77823;BME280;67013;49.730;17.292;2023-11-21T11:13:01;97896.89;;;10.11;75.84
77823;BME280;67013;49.730;17.292;2023-11-21T11:15:31;97897.72;;;10.15;75.94
77823;BME280;67013;49.730;17.292;2023-11-21T11:18:02;97899.63;;;10.20;75.62
77823;BME280;67013;49.730;17.292;2023-11-21T11:20:36;97893.36;;;10.27;76.03
77823;BME280;67013;49.730;17.292;2023-11-21T11:23:26;97888.22;;;10.35;75.69
77823;BME280;67013;49.730;17.292;2023-11-21T11:26:09;97887.55;;;10.43;75.32
77823;BME280;67013;49.730;17.292;2023-11-21T11:28:57;97890.32;;;10.50;75.73
77823;BME280;67013;49.730;17.292;2023-11-21T11:31:45;97894.95;;;10.57;75.38
77823;BME280;67013;49.730;17.292;2023-11-21T11:34:23;97891.31;;;10.61;75.21
77823;BME280;67013;49.730;17.292;2023-11-21T11:36:59;97891.75;;;10.67;74.58
77823;BME280;67013;49.730;17.292;2023-11-21T11:39:34;97892.94;;;10.69;74.41
77823;BME280;67013;49.730;17.292;2023-11-21T11:42:10;97892.86;;;10.72;74.44
77823;BME280;67013;49.730;17.292;2023-11-21T11:44:51;97885.50;;;10.75;74.73
77823;BME280;67013;49.730;17.292;2023-11-21T11:47:24;97888.36;;;10.78;74.45
77823;BME280;67013;49.730;17.292;2023-11-21T11:50:07;97888.29;;;10.81;74.48
77823;BME280;67013;49.730;17.292;2023-11-21T11:52:42;97886.16;;;10.86;74.08
77823;BME280;67013;49.730;17.292;2023-11-21T11:55:13;97890.09;;;10.91;74.25
77823;BME280;67013;49.730;17.292;2023-11-21T11:57:47;97892.11;;;10.94;74.15
77823;BME280;67013;49.730;17.292;2023-11-21T12:00:19;97894.10;;;10.97;74.28
77823;BME280;67013;49.730;17.292;2023-11-21T12:02:54;97892.08;;;11.01;74.57
77823;BME280;67013;49.730;17.292;2023-11-21T12:05:23;97897.90;;;11.04;74.25
77823;BME280;67013;49.730;17.292;2023-11-21T12:07:56;97892.70;;;11.03;74.15
77823;BME280;67013;49.730;17.292;2023-11-21T12:10:30;97890.26;;;11.04;73.87
77823;BME280;67013;49.730;17.292;2023-11-21T12:13:01;97887.39;;;11.05;73.74
77823;BME280;67013;49.730;17.292;2023-11-21T12:15:32;97884.94;;;11.05;74.18
77823;BME280;67013;49.730;17.292;2023-11-21T12:18:02;97885.27;;;11.05;74.04
77823;BME280;67013;49.730;17.292;2023-11-21T12:20:32;97881.31;;;11.04;73.57
77823;BME280;67013;49.730;17.292;2023-11-21T12:23:07;97882.11;;;11.08;73.46
77823;BME280;67013;49.730;17.292;2023-11-21T12:25:39;97881.67;;;11.11;73.49
77823;BME280;67013;49.730;17.292;2023-11-21T12:28:09;97876.35;;;11.16;73.68
77823;BME280;67013;49.730;17.292;2023-11-21T12:30:40;97878.57;;;11.21;73.37
77823;BME280;67013;49.730;17.292;2023-11-21T12:33:09;97878.52;;;11.25;73.52
77823;BME280;67013;49.730;17.292;2023-11-21T12:35:41;97879.91;;;11.29;73.16
77823;BME280;67013;49.730;17.292;2023-11-21T12:38:12;97878.75;;;11.33;72.57
77823;BME280;67013;49.730;17.292;2023-11-21T12:40:42;97881.52;;;11.36;72.47
77823;BME280;67013;49.730;17.292;2023-11-21T12:43:12;97882.44;;;11.37;72.14
77823;BME280;67013;49.730;17.292;2023-11-21T12:45:41;97879.52;;;11.37;72.34
77823;BME280;67013;49.730;17.292;2023-11-21T12:48:12;97879.13;;;11.33;71.98
77823;BME280;67013;49.730;17.292;2023-11-21T12:50:41;97883.63;;;11.26;71.66
77823;BME280;67013;49.730;17.292;2023-11-21T12:53:12;97884.30;;;11.23;71.84
77823;BME280;67013;49.730;17.292;2023-11-21T12:55:43;97887.63;;;11.23;71.98
77823;BME280;67013;49.730;17.292;2023-11-21T12:58:19;97891.91;;;11.23;71.76
77823;BME280;67013;49.730;17.292;2023-11-21T13:00:51;97894.94;;;11.23;71.79
77823;BME280;67013;49.730;17.292;2023-11-21T13:03:22;97897.33;;;11.23;72.10
77823;BME280;67013;49.730;17.292;2023-11-21T13:05:55;97898.18;;;11.23;72.43
77823;BME280;67013;49.730;17.292;2023-11-21T13:08:27;97896.95;;;11.23;72.22
77823;BME280;67013;49.730;17.292;2023-11-21T13:10:58;97898.09;;;11.24;72.26
77823;BME280;67013;49.730;17.292;2023-11-21T13:13:29;97897.68;;;11.25;72.32
77823;BME280;67013;49.730;17.292;2023-11-21T13:16:01;97897.23;;;11.26;72.18